Time;durP1;ratioP1;P1;durP2;ratioP2;P2;SDS_P1;SDS_P2;PMS_P1;PMS_P2;Temp;Humidity;BMP_temperature;BMP_pressure;BME280_temperature;BME280_humidity;BME280_pressure;Samples;Min_cycle;Max_cycle;Signal;HPM_P1;HPM_P2
2023/06/26 00:00:32;;;;;;;4.15;1.05;;;22.00;1.00;;;;;;5026499;28;20499;-73
2023/06/26 00:02:58;;;;;;;0.50;0.45;;;22.00;1.00;;;;;;5026055;28;20114;-73
2023/06/26 00:05:23;;;;;;;0.47;0.47;;;21.90;1.00;;;;;;5041721;28;20056;-74
2023/06/26 00:07:49;;;;;;;0.50;0.50;;;21.80;1.00;;;;;;5045947;28;20095;-73
2023/06/26 00:10:15;;;;;;;1.30;0.95;;;21.80;1.00;;;;;;5045868;28;20527;-73
2023/06/26 00:12:41;;;;;;;1.23;0.75;;;21.70;1.00;;;;;;5046234;28;20393;-74
2023/06/26 00:15:07;;;;;;;0.93;0.77;;;21.50;1.00;;;;;;5046137;28;20102;-73
2023/06/26 00:17:36;;;;;;;0.80;0.55;;;21.50;1.00;;;;;;5045400;28;20140;-73
2023/06/26 00:20:03;;;;;;;2.00;1.33;;;21.50;1.00;;;;;;5045958;28;20065;-73
2023/06/26 00:22:29;;;;;;;1.08;0.47;;;21.50;1.00;;;;;;5045563;28;20083;-76
2023/06/26 00:24:54;;;;;;;0.40;0.40;;;21.70;7.40;;;;;;5045938;28;20076;-74
2023/06/26 00:27:20;;;;;;;2.25;0.57;;;21.80;1.00;;;;;;5045729;28;20049;-73
2023/06/26 00:29:46;;;;;;;1.08;0.93;;;21.80;1.00;;;;;;5045727;28;20045;-73
2023/06/26 00:32:11;;;;;;;0.68;0.60;;;21.90;1.00;;;;;;5045684;28;20102;-73
2023/06/26 00:34:37;;;;;;;0.77;0.77;;;21.90;1.00;;;;;;5045399;28;20037;-74
2023/06/26 00:37:03;;;;;;;0.73;0.63;;;21.90;1.00;;;;;;5045472;28;20033;-73
2023/06/26 00:39:29;;;;;;;1.38;1.15;;;21.80;1.00;;;;;;5045571;28;20465;-74
2023/06/26 00:41:55;;;;;;;2.30;1.48;;;21.80;1.00;;;;;;5045582;28;20076;-73
2023/06/26 00:44:21;;;;;;;0.45;0.45;;;21.80;1.00;;;;;;5045715;28;20041;-73
2023/06/26 00:46:47;;;;;;;1.02;0.80;;;21.70;1.00;;;;;;5045680;28;20121;-73
2023/06/26 00:49:13;;;;;;;2.67;1.65;;;21.80;1.00;;;;;;5045350;28;20076;-74
2023/06/26 00:51:38;;;;;;;1.75;1.17;;;21.80;5.10;;;;;;5045317;28;20095;-73
2023/06/26 00:54:04;;;;;;;0.57;0.57;;;21.90;1.80;;;;;;5045850;28;20045;-73
2023/06/26 00:56:31;;;;;;;0.95;0.82;;;21.90;1.00;;;;;;5045361;28;20053;-73
2023/06/26 00:58:57;;;;;;;0.30;0.30;;;21.90;4.90;;;;;;5045111;28;20045;-73
2023/06/26 01:01:25;;;;;;;1.48;0.43;;;21.90;5.60;;;;;;5045135;28;20045;-73
2023/06/26 01:03:52;;;;;;;1.27;0.77;;;21.80;11.30;;;;;;5044757;28;20415;-74
2023/06/26 01:06:21;;;;;;;1.13;1.02;;;21.80;19.90;;;;;;5045079;28;20037;-73
2023/06/26 01:08:47;;;;;;;1.15;0.93;;;21.80;21.70;;;;;;5044715;28;20049;-73
2023/06/26 01:11:14;;;;;;;1.88;1.25;;;21.80;26.60;;;;;;5044690;28;20073;-73
2023/06/26 01:13:42;;;;;;;0.65;0.60;;;21.70;27.10;;;;;;5045329;28;20045;-74
2023/06/26 01:16:09;;;;;;;0.60;0.60;;;21.60;35.40;;;;;;5044979;28;20051;-73
2023/06/26 01:18:37;;;;;;;2.20;1.35;;;21.60;64.20;;;;;;5044516;28;20041;-73
2023/06/26 01:21:04;;;;;;;2.03;1.35;;;21.60;79.80;;;;;;5045037;28;20420;-73
2023/06/26 01:23:48;;;;;;;1.40;0.47;;;21.60;73.70;;;;;;5045068;28;20134;-73
2023/06/26 01:26:21;;;;;;;0.47;0.38;;;21.60;92.40;;;;;;5044938;28;20419;-74
2023/06/26 01:28:49;;;;;;;0.55;0.45;;;21.60;89.10;;;;;;5044745;28;20045;-73
2023/06/26 01:31:15;;;;;;;0.43;0.43;;;21.60;99.50;;;;;;5044948;28;20045;-74
2023/06/26 01:33:42;;;;;;;1.08;0.80;;;21.50;97.20;;;;;;5045000;28;20049;-73
2023/06/26 01:36:08;;;;;;;0.38;0.38;;;21.50;99.90;;;;;;5045146;28;20127;-74
2023/06/26 01:38:37;;;;;;;1.20;0.68;;;21.40;99.90;;;;;;5044366;28;20127;-74
2023/06/26 01:41:04;;;;;;;0.98;0.88;;;21.40;99.90;;;;;;5044747;28;20498;-74
2023/06/26 01:43:58;;;;;;;0.70;0.65;;;21.30;99.90;;;;;;5044846;28;20091;-74
2023/06/26 01:46:34;;;;;;;2.50;0.20;;;21.30;99.90;;;;;;5044564;28;20226;-74
2023/06/26 01:49:06;;;;;;;2.92;1.13;;;21.10;99.90;;;;;;5044424;28;20052;-74
2023/06/26 01:51:39;;;;;;;0.20;0.20;;;21.00;99.90;;;;;;5044221;28;20049;-74
2023/06/26 01:54:09;;;;;;;1.45;0.75;;;20.90;99.90;;;;;;5044210;28;20053;-74
2023/06/26 01:56:38;;;;;;;0.28;0.28;;;20.90;99.90;;;;;;5044782;28;20045;-74
2023/06/26 01:59:05;;;;;;;0.52;0.52;;;20.80;99.90;;;;;;5044063;28;20563;-73
2023/06/26 02:01:33;;;;;;;0.65;0.65;;;20.70;99.90;;;;;;5044679;28;20048;-74
2023/06/26 02:03:59;;;;;;;1.77;0.30;;;20.70;99.90;;;;;;5044608;28;20080;-74
2023/06/26 02:06:25;;;;;;;1.73;1.15;;;20.50;99.90;;;;;;5044274;28;20506;-74
2023/06/26 02:08:50;;;;;;;1.77;1.60;;;20.70;99.90;;;;;;5044063;28;20037;-74
2023/06/26 02:11:16;;;;;;;0.47;0.40;;;20.60;99.90;;;;;;5044363;28;20048;-74
2023/06/26 02:13:42;;;;;;;0.65;0.52;;;20.60;99.90;;;;;;5044083;28;20504;-73
2023/06/26 02:16:07;;;;;;;4.88;0.68;;;20.60;99.90;;;;;;5043636;28;20041;-74
2023/06/26 02:18:33;;;;;;;1.00;0.60;;;20.50;99.90;;;;;;5043946;28;20079;-74
2023/06/26 02:20:59;;;;;;;0.85;0.60;;;20.40;1.00;;;;;;5044154;28;20109;-74
2023/06/26 02:23:24;;;;;;;0.75;0.73;;;20.30;1.00;;;;;;5043970;28;20088;-74
2023/06/26 02:25:50;;;;;;;1.77;1.10;;;20.20;1.00;;;;;;5044032;28;20565;-74
2023/06/26 02:28:16;;;;;;;0.30;0.25;;;20.20;1.00;;;;;;5043823;28;20056;-74
2023/06/26 02:30:41;;;;;;;1.98;1.75;;;20.10;1.00;;;;;;5043578;28;20037;-74
2023/06/26 02:33:07;;;;;;;1.50;0.95;;;20.00;10.40;;;;;;5043778;28;20522;-74
2023/06/26 02:35:33;;;;;;;1.55;1.23;;;20.00;99.90;;;;;;5043276;28;20083;-74
2023/06/26 02:37:58;;;;;;;0.45;0.45;;;19.90;99.90;;;;;;5043348;28;20044;-73
2023/06/26 02:40:24;;;;;;;1.08;0.90;;;19.90;99.90;;;;;;5043850;28;20159;-74
2023/06/26 02:42:49;;;;;;;0.63;0.47;;;19.90;99.90;;;;;;5043825;28;20041;-74
2023/06/26 02:45:15;;;;;;;1.75;1.00;;;19.90;99.90;;;;;;5043044;28;20179;-74
2023/06/26 02:47:41;;;;;;;1.00;0.73;;;19.80;99.90;;;;;;5043173;28;20052;-74
2023/06/26 02:50:07;;;;;;;0.80;0.70;;;19.80;1.00;;;;;;5043490;28;20488;-74
2023/06/26 02:52:33;;;;;;;1.13;0.90;;;19.80;1.00;;;;;;5042907;28;20037;-74
2023/06/26 02:54:58;;;;;;;0.82;0.65;;;19.70;1.00;;;;;;5043451;28;20590;-74
2023/06/26 02:57:27;;;;;;;2.35;0.80;;;19.80;86.80;;;;;;5043146;28;20163;-74
2023/06/26 02:59:53;;;;;;;3.92;1.27;;;19.70;95.50;;;;;;5043469;28;20045;-74
2023/06/26 03:02:18;;;;;;;1.30;0.93;;;19.80;99.90;;;;;;5043570;28;20067;-74
2023/06/26 03:04:44;;;;;;;2.67;1.58;;;19.90;99.90;;;;;;5043214;28;20077;-74
2023/06/26 03:07:10;;;;;;;0.93;0.90;;;19.90;99.90;;;;;;5043373;28;20061;-74
2023/06/26 03:09:35;;;;;;;1.27;0.88;;;19.80;73.70;;;;;;5043320;28;20163;-75
2023/06/26 03:12:01;;;;;;;1.25;1.15;;;19.80;99.90;;;;;;5043119;28;20439;-74
2023/06/26 03:14:27;;;;;;;0.60;0.55;;;19.80;99.90;;;;;;5042947;28;20096;-73
2023/06/26 03:16:56;;;;;;;0.75;0.75;;;19.80;99.90;;;;;;5043300;28;20045;-74
2023/06/26 03:19:22;;;;;;;1.98;1.08;;;19.80;99.90;;;;;;5042289;28;20078;-74
2023/06/26 03:21:48;;;;;;;1.10;1.00;;;19.80;99.90;;;;;;5042877;28;20495;-74
2023/06/26 03:24:13;;;;;;;0.73;0.65;;;19.80;99.90;;;;;;5043006;28;20041;-74
2023/06/26 03:26:39;;;;;;;1.17;0.60;;;19.80;99.90;;;;;;5024897;28;20435;-74
2023/06/26 03:29:04;;;;;;;0.55;0.55;;;19.80;99.90;;;;;;5046850;28;20524;-74
2023/06/26 03:31:30;;;;;;;1.98;1.15;;;19.80;99.90;;;;;;5046623;28;20068;-74
2023/06/26 03:33:56;;;;;;;2.60;0.60;;;19.80;1.00;;;;;;5046512;28;20045;-73
2023/06/26 03:36:21;;;;;;;1.55;0.80;;;19.70;1.00;;;;;;5046701;28;20060;-74
2023/06/26 03:38:47;;;;;;;1.02;0.93;;;19.70;1.00;;;;;;5046941;28;20045;-74
2023/06/26 03:41:13;;;;;;;1.45;1.17;;;19.80;81.10;;;;;;5046798;28;20128;-74
2023/06/26 03:43:38;;;;;;;0.70;0.70;;;19.80;80.50;;;;;;5046856;28;20103;-73
2023/06/26 03:46:04;;;;;;;1.38;1.27;;;19.80;99.90;;;;;;5046526;28;20037;-74
2023/06/26 03:48:29;;;;;;;1.48;1.10;;;19.80;99.90;;;;;;5046918;28;20036;-74
2023/06/26 03:50:55;;;;;;;0.63;0.52;;;19.90;99.90;;;;;;5046536;28;20044;-74
2023/06/26 03:53:21;;;;;;;1.13;0.90;;;20.00;99.90;;;;;;5046754;28;20076;-73
2023/06/26 03:55:47;;;;;;;1.88;1.55;;;20.10;99.90;;;;;;5047005;28;20137;-73
2023/06/26 03:58:12;;;;;;;2.75;1.58;;;20.10;99.90;;;;;;5046377;28;20090;-73
2023/06/26 04:00:38;;;;;;;1.50;1.08;;;20.30;99.90;;;;;;5046702;28;20045;-74
2023/06/26 04:03:04;;;;;;;1.15;0.98;;;20.40;92.50;;;;;;5046051;28;20419;-74
2023/06/26 04:05:29;;;;;;;0.85;0.82;;;20.60;12.60;;;;;;5046270;28;20064;-74
2023/06/26 04:07:55;;;;;;;1.15;0.90;;;20.60;1.00;;;;;;5046239;28;20044;-74
2023/06/26 04:10:21;;;;;;;1.13;0.75;;;20.60;1.00;;;;;;5046025;28;20491;-74
2023/06/26 04:12:48;;;;;;;1.05;0.93;;;20.70;1.00;;;;;;5046232;28;20052;-74
2023/06/26 04:15:13;;;;;;;0.30;0.30;;;20.70;1.00;;;;;;5046160;28;20124;-74
2023/06/26 04:17:39;;;;;;;1.70;1.33;;;20.70;1.00;;;;;;5045968;28;20124;-73
2023/06/26 04:20:06;;;;;;;1.05;0.73;;;20.70;16.60;;;;;;5045483;28;20057;-74
2023/06/26 04:22:32;;;;;;;0.35;0.35;;;20.70;45.50;;;;;;5046089;28;20090;-74
2023/06/26 04:24:58;;;;;;;0.40;0.40;;;20.70;99.90;;;;;;5046652;28;20052;-74
2023/06/26 04:27:23;;;;;;;1.20;0.98;;;20.70;99.90;;;;;;5046993;28;20132;-74
2023/06/26 04:29:49;;;;;;;1.58;1.20;;;20.70;99.90;;;;;;5046504;28;20094;-74
2023/06/26 04:32:15;;;;;;;0.38;0.20;;;20.80;99.90;;;;;;5046679;28;20048;-74
2023/06/26 04:34:44;;;;;;;1.02;0.95;;;20.90;99.90;;;;;;5046359;28;20045;-73
2023/06/26 04:37:09;;;;;;;1.88;1.02;;;21.00;99.90;;;;;;5046840;28;20048;-73
2023/06/26 04:39:37;;;;;;;1.15;0.98;;;21.10;99.90;;;;;;5045817;28;20049;-73
2023/06/26 04:42:04;;;;;;;1.35;1.13;;;21.20;70.30;;;;;;5046614;28;20040;-73
2023/06/26 04:44:29;;;;;;;1.13;0.73;;;21.30;1.00;;;;;;5046509;28;20487;-73
2023/06/26 04:46:55;;;;;;;1.55;0.93;;;21.40;1.00;;;;;;5046860;28;20128;-74
2023/06/26 04:49:21;;;;;;;1.70;1.02;;;21.60;1.00;;;;;;5046587;28;20458;-73
2023/06/26 04:51:46;;;;;;;0.43;0.30;;;21.80;99.90;;;;;;5046902;28;20439;-74
2023/06/26 04:54:12;;;;;;;0.25;0.22;;;22.00;99.90;;;;;;5046404;28;20049;-73
2023/06/26 04:56:39;;;;;;;0.50;0.50;;;22.10;99.90;;;;;;5028698;28;20415;-73
2023/06/26 04:59:06;;;;;;;0.68;0.60;;;22.40;92.40;;;;;;5046304;28;20064;-73
2023/06/26 05:01:32;;;;;;;3.15;0.82;;;22.70;1.00;;;;;;5046784;28;20041;-74
2023/06/26 05:03:58;;;;;;;3.15;1.45;;;23.00;99.90;;;;;;5046127;28;20053;-73
2023/06/26 05:06:24;;;;;;;3.38;1.55;;;23.30;99.90;;;;;;5046325;28;20051;-74
2023/06/26 05:08:50;;;;;;;2.17;1.30;;;23.40;99.90;;;;;;5044655;28;20041;-73
2023/06/26 05:11:16;;;;;;;0.75;0.63;;;23.20;99.90;;;;;;5043604;28;20130;-73
2023/06/26 05:13:41;;;;;;;8.30;1.50;;;23.20;99.90;;;;;;5044048;28;20152;-74
2023/06/26 05:16:08;;;;;;;0.85;0.55;;;23.00;99.90;;;;;;5025356;28;20081;-73
2023/06/26 05:18:35;;;;;;;1.02;0.95;;;22.60;1.00;;;;;;5043282;28;20534;-73
2023/06/26 05:21:01;;;;;;;0.95;0.65;;;22.40;99.90;;;;;;5043331;28;20064;-74
2023/06/26 05:23:31;;;;;;;4.13;0.50;;;22.20;99.90;;;;;;5044124;28;20049;-73
2023/06/26 05:25:57;;;;;;;1.02;0.63;;;22.10;13.80;;;;;;5043770;28;20045;-74
2023/06/26 05:28:24;;;;;;;2.30;1.60;;;22.10;99.90;;;;;;5026241;28;20075;-74
2023/06/26 05:30:51;;;;;;;2.03;1.13;;;22.00;99.90;;;;;;5044591;28;20045;-73
2023/06/26 05:33:19;;;;;;;1.40;1.02;;;22.10;98.90;;;;;;5045627;28;20052;-74
2023/06/26 05:35:45;;;;;;;2.83;1.02;;;22.10;44.70;;;;;;5046163;28;20045;-74
2023/06/26 05:38:13;;;;;;;3.42;1.98;;;22.20;71.80;;;;;;5045712;28;20117;-74
2023/06/26 05:40:40;;;;;;;3.53;1.58;;;22.20;1.00;;;;;;5045801;28;20045;-74
2023/06/26 05:43:06;;;;;;;3.78;1.70;;;22.00;99.90;;;;;;5045799;28;20459;-74
2023/06/26 05:45:32;;;;;;;0.60;0.55;;;21.70;99.90;;;;;;5044712;28;20052;-74
2023/06/26 05:47:58;;;;;;;5.65;0.60;;;21.10;99.90;;;;;;5043974;28;20045;-73
2023/06/26 05:50:24;;;;;;;0.77;0.75;;;20.90;1.00;;;;;;5042328;28;20068;-73
2023/06/26 05:52:51;;;;;;;1.63;1.23;;;20.50;99.90;;;;;;5042349;28;20555;-73
2023/06/26 05:55:17;;;;;;;1.92;1.40;;;20.50;99.90;;;;;;5043214;28;20064;-73
2023/06/26 05:57:45;;;;;;;0.20;0.20;;;20.50;21.30;;;;;;5042580;28;20234;-73
2023/06/26 06:00:11;;;;;;;2.58;0.63;;;20.60;99.90;;;;;;5042857;28;20472;-73
2023/06/26 06:02:38;;;;;;;6.72;0.80;;;20.70;1.00;;;;;;5042840;28;20120;-73
2023/06/26 06:05:04;;;;;;;0.88;0.80;;;20.60;78.70;;;;;;5043128;28;20045;-73
2023/06/26 06:07:34;;;;;;;1.65;1.20;;;20.60;99.90;;;;;;5042621;28;20052;-73
2023/06/26 06:10:00;;;;;;;1.58;0.95;;;20.50;99.90;;;;;;5042934;28;20037;-73
2023/06/26 06:12:33;;;;;;;1.45;1.10;;;20.70;99.90;;;;;;5079674;27;20401;-73
2023/06/26 06:14:59;;;;;;;1.88;0.90;;;20.80;99.90;;;;;;5079528;28;20052;-72
2023/06/26 06:17:25;;;;;;;3.17;0.80;;;21.00;74.60;;;;;;5079614;28;20059;-72
2023/06/26 06:19:50;;;;;;;3.03;1.65;;;21.20;99.90;;;;;;5079355;28;20036;-72
2023/06/26 06:22:17;;;;;;;1.40;0.85;;;21.30;1.00;;;;;;5079256;28;20044;-72
2023/06/26 06:24:43;;;;;;;1.25;0.73;;;21.50;99.90;;;;;;5079088;28;20048;-72
2023/06/26 06:27:09;;;;;;;0.00;0.00;;;21.90;95.00;;;;;;5079785;28;20123;-71
2023/06/26 06:29:35;;;;;;;3.65;1.35;;;22.20;1.00;;;;;;5079306;28;20143;-71
2023/06/26 06:32:00;;;;;;;5.45;0.70;;;22.50;99.90;;;;;;5079272;28;20888;-72
2023/06/26 06:34:26;;;;;;;0.30;0.28;;;22.60;79.90;;;;;;5079107;28;20052;-72
2023/06/26 06:36:51;;;;;;;0.43;0.38;;;23.40;99.90;;;;;;5078887;28;20052;-72
2023/06/26 06:39:17;;;;;;;0.20;0.15;;;23.70;1.00;;;;;;5068894;28;20124;-72
2023/06/26 06:41:43;;;;;;;1.27;0.70;;;23.70;1.00;;;;;;5058690;28;20466;-72
2023/06/26 06:44:08;;;;;;;0.05;0.05;;;23.30;1.00;;;;;;5058644;28;20095;-72
2023/06/26 06:46:34;;;;;;;6.10;0.38;;;22.70;1.00;;;;;;5058581;28;20065;-71
2023/06/26 06:49:00;;;;;;;3.28;1.52;;;23.10;56.00;;;;;;5058635;28;20578;-72
2023/06/26 06:51:26;;;;;;;0.38;0.38;;;23.90;99.90;;;;;;5056693;28;20463;-71
2023/06/26 06:53:51;;;;;;;0.55;0.38;;;24.50;99.90;;;;;;5047983;28;20128;-72
2023/06/26 06:56:17;;;;;;;0.95;0.55;;;25.40;99.90;;;;;;5042003;28;20052;-72
2023/06/26 06:58:43;;;;;;;9.02;0.82;;;26.30;99.90;;;;;;5038054;28;20586;-71
2023/06/26 07:01:11;;;;;;;1.02;0.20;;;26.70;99.90;;;;;;5038407;28;20713;-72
2023/06/26 07:03:37;;;;;;;0.73;0.47;;;26.60;99.90;;;;;;5038624;28;20045;-72
2023/06/26 07:06:03;;;;;;;0.38;0.28;;;26.10;93.20;;;;;;5038167;28;20095;-72
2023/06/26 07:08:29;;;;;;;0.80;0.65;;;26.60;99.90;;;;;;5038207;28;20393;-72
2023/06/26 07:10:56;;;;;;;0.10;0.10;;;26.70;93.70;;;;;;5037847;28;20156;-72
2023/06/26 07:13:22;;;;;;;0.50;0.35;;;26.90;48.20;;;;;;5038403;28;20052;-72
2023/06/26 07:15:48;;;;;;;0.38;0.32;;;27.40;57.60;;;;;;5038406;28;20057;-72
2023/06/26 07:18:14;;;;;;;0.00;0.00;;;27.30;17.50;;;;;;5038373;28;20475;-72
2023/06/26 07:20:40;;;;;;;0.30;0.30;;;27.80;29.20;;;;;;5038003;28;20459;-72
2023/06/26 07:23:06;;;;;;;0.43;0.40;;;27.60;1.00;;;;;;5029120;28;20116;-72
2023/06/26 07:25:31;;;;;;;0.52;0.28;;;27.50;1.00;;;;;;5024520;28;20571;-72
2023/06/26 07:27:57;;;;;;;0.00;0.00;;;27.70;1.00;;;;;;5031141;28;20535;-72
2023/06/26 07:30:24;;;;;;;0.10;0.10;;;26.90;1.00;;;;;;5033685;28;20045;-72
2023/06/26 07:32:49;;;;;;;0.00;0.00;;;26.60;1.00;;;;;;5035328;28;20079;-72
2023/06/26 07:35:15;;;;;;;0.77;0.77;;;26.90;1.00;;;;;;5044324;28;20051;-72
2023/06/26 07:37:41;;;;;;;0.20;0.13;;;27.00;1.00;;;;;;5044655;28;20041;-72
2023/06/26 07:40:07;;;;;;;4.50;1.00;;;27.10;1.00;;;;;;5044416;28;20052;-72
2023/06/26 07:42:33;;;;;;;1.50;0.50;;;28.10;1.00;;;;;;5044160;28;20098;-72
2023/06/26 07:44:59;;;;;;;6.25;1.08;;;29.10;1.00;;;;;;5044144;28;20048;-72
2023/06/26 07:47:24;;;;;;;0.45;0.43;;;29.70;1.00;;;;;;5043752;28;20048;-72
2023/06/26 07:49:50;;;;;;;0.43;0.35;;;29.70;1.00;;;;;;5044215;28;20041;-71
2023/06/26 07:52:16;;;;;;;0.00;0.00;;;28.50;1.00;;;;;;5043780;28;20041;-71
2023/06/26 07:54:41;;;;;;;1.13;0.73;;;26.90;99.90;;;;;;5044127;28;20077;-72
2023/06/26 07:57:08;;;;;;;0.20;0.10;;;27.30;99.90;;;;;;5044324;28;20551;-72
2023/06/26 07:59:34;;;;;;;0.30;0.20;;;27.80;1.00;;;;;;5043980;28;20524;-72
2023/06/26 08:02:01;;;;;;;0.03;0.03;;;28.00;1.00;;;;;;5043932;28;20076;-72
2023/06/26 08:04:29;;;;;;;0.55;0.30;;;28.00;99.90;;;;;;5043667;28;20049;-72
2023/06/26 08:06:56;;;;;;;0.95;0.47;;;27.40;99.90;;;;;;5059056;28;20049;-72
2023/06/26 08:09:24;;;;;;;0.70;0.32;;;27.70;99.90;;;;;;5042553;28;20468;-72
2023/06/26 08:11:50;;;;;;;0.20;0.10;;;27.40;99.90;;;;;;5039901;28;20334;-72
2023/06/26 08:14:17;;;;;;;0.30;0.30;;;26.10;99.90;;;;;;5041487;28;20068;-72
2023/06/26 08:16:43;;;;;;;2.30;0.28;;;25.70;99.90;;;;;;5041119;28;20542;-72
2023/06/26 08:19:10;;;;;;;0.00;0.00;;;26.00;99.90;;;;;;5041140;28;20135;-72
2023/06/26 08:21:35;;;;;;;0.00;0.00;;;26.60;99.90;;;;;;5041118;28;20049;-72
2023/06/26 08:24:02;;;;;;;0.10;0.10;;;26.40;99.90;;;;;;5041139;28;20048;-72
2023/06/26 08:26:28;;;;;;;0.47;0.47;;;25.80;99.90;;;;;;5040993;28;20129;-72
2023/06/26 08:28:53;;;;;;;0.00;0.00;;;25.40;99.90;;;;;;5040941;28;20132;-72
2023/06/26 08:31:19;;;;;;;0.57;0.38;;;25.20;99.90;;;;;;5040691;28;20044;-71
2023/06/26 08:33:46;;;;;;;0.00;0.00;;;24.30;99.90;;;;;;5039845;28;20056;-71
2023/06/26 08:36:12;;;;;;;1.00;0.45;;;24.40;99.90;;;;;;5040292;28;20128;-71
2023/06/26 08:38:40;;;;;;;3.88;0.45;;;25.60;99.90;;;;;;5040692;28;20051;-72
2023/06/26 08:41:09;;;;;;;0.10;0.10;;;26.10;99.90;;;;;;5040939;28;20051;-72
2023/06/26 08:43:36;;;;;;;0.03;0.03;;;27.30;99.90;;;;;;5040393;28;20049;-71
2023/06/26 08:46:02;;;;;;;0.20;0.20;;;27.40;99.90;;;;;;5040807;28;20644;-71
2023/06/26 08:48:33;;;;;;;0.10;0.10;;;27.70;99.90;;;;;;5040639;28;20045;-72
2023/06/26 08:51:05;;;;;;;0.28;0.25;;;28.30;99.90;;;;;;5040557;28;20053;-72
2023/06/26 08:53:46;;;;;;;0.20;0.15;;;29.10;99.90;;;;;;5040886;28;20068;-72
2023/06/26 08:56:14;;;;;;;0.00;0.00;;;27.90;99.90;;;;;;5040673;28;20044;-71
2023/06/26 08:58:40;;;;;;;0.10;0.10;;;27.20;99.90;;;;;;5040170;28;20049;-71
2023/06/26 09:01:06;;;;;;;0.00;0.00;;;26.40;99.90;;;;;;5040328;28;20044;-71
2023/06/26 09:03:32;;;;;;;0.15;0.15;;;26.30;99.90;;;;;;5037893;28;20095;-71
2023/06/26 09:05:58;;;;;;;0.85;0.20;;;26.30;99.90;;;;;;5040710;28;20052;-71
2023/06/26 09:08:24;;;;;;;0.47;0.25;;;26.00;99.90;;;;;;5040294;28;20393;-71
2023/06/26 09:10:50;;;;;;;0.00;0.00;;;25.40;99.90;;;;;;5039228;28;20508;-71
2023/06/26 09:13:17;;;;;;;3.17;0.88;;;25.40;99.90;;;;;;5040109;28;20128;-71
2023/06/26 09:15:46;;;;;;;1.40;0.55;;;26.30;99.90;;;;;;5038356;28;20512;-71
2023/06/26 09:18:13;;;;;;;0.13;0.10;;;27.50;99.90;;;;;;5040011;28;20423;-71
2023/06/26 09:20:38;;;;;;;0.10;0.10;;;27.90;99.90;;;;;;5039851;28;20048;-71
2023/06/26 09:23:05;;;;;;;2.08;0.43;;;28.70;99.90;;;;;;5024946;28;20301;-71
2023/06/26 09:25:31;;;;;;;0.77;0.17;;;29.10;99.90;;;;;;5033026;28;20041;-71
2023/06/26 09:27:57;;;;;;;0.35;0.30;;;28.90;99.90;;;;;;5040419;28;20044;-72
2023/06/26 09:30:23;;;;;;;0.08;0.08;;;27.90;99.90;;;;;;5041867;28;20518;-71
2023/06/26 09:32:50;;;;;;;0.10;0.10;;;28.00;99.90;;;;;;5042219;28;20041;-72
2023/06/26 09:35:17;;;;;;;0.20;0.20;;;27.60;99.90;;;;;;5041254;28;20071;-71
2023/06/26 09:37:43;;;;;;;0.08;0.08;;;27.30;99.90;;;;;;5041890;28;20053;-71
2023/06/26 09:40:09;;;;;;;0.55;0.45;;;27.20;99.90;;;;;;5042466;28;20106;-71
2023/06/26 09:42:35;;;;;;;1.35;0.32;;;28.10;99.90;;;;;;5042541;28;20049;-71
2023/06/26 09:45:02;;;;;;;0.17;0.15;;;28.40;99.90;;;;;;5041773;28;20040;-72
2023/06/26 09:47:31;;;;;;;0.17;0.17;;;28.30;99.90;;;;;;5042181;28;20102;-71
2023/06/26 09:49:57;;;;;;;1.55;0.65;;;26.60;99.90;;;;;;5042190;28;20055;-71
2023/06/26 09:52:27;;;;;;;3.47;0.70;;;26.00;99.90;;;;;;5041998;28;20041;-71
2023/06/26 09:55:10;;;;;;;0.08;0.08;;;26.30;99.90;;;;;;5042164;28;20051;-71
2023/06/26 09:57:36;;;;;;;0.20;0.20;;;25.60;99.90;;;;;;5041696;28;20049;-72
2023/06/26 10:00:03;;;;;;;0.65;0.57;;;25.40;99.90;;;;;;5041740;28;20103;-71
2023/06/26 10:02:29;;;;;;;0.30;0.30;;;26.20;99.90;;;;;;5041793;28;20419;-71
2023/06/26 10:04:55;;;;;;;0.10;0.10;;;26.50;99.90;;;;;;5041699;28;20049;-72
2023/06/26 10:07:22;;;;;;;0.00;0.00;;;25.90;99.90;;;;;;5041740;28;20044;-72
2023/06/26 10:09:50;;;;;;;0.77;0.63;;;25.20;99.90;;;;;;5041510;28;20049;-72
2023/06/26 10:12:31;;;;;;;0.30;0.30;;;24.50;99.90;;;;;;5042324;28;20057;-72
2023/06/26 10:14:58;;;;;;;1.27;0.47;;;24.30;99.90;;;;;;5041862;28;20224;-72
2023/06/26 10:17:28;;;;;;;2.08;0.30;;;24.80;99.90;;;;;;5041599;28;20448;-72
2023/06/26 10:19:56;;;;;;;0.30;0.30;;;25.70;99.90;;;;;;5041579;28;20051;-72
2023/06/26 10:22:27;;;;;;;0.00;0.00;;;26.00;99.90;;;;;;5040392;28;20052;-72
2023/06/26 10:24:58;;;;;;;0.20;0.13;;;26.60;99.90;;;;;;5041867;28;20052;-72
2023/06/26 10:27:28;;;;;;;0.45;0.45;;;26.90;99.90;;;;;;5041461;28;20045;-72
2023/06/26 10:29:56;;;;;;;0.17;0.13;;;26.40;99.90;;;;;;5041622;28;20052;-72
2023/06/26 10:32:24;;;;;;;0.10;0.10;;;26.20;99.90;;;;;;5041346;28;20064;-72
2023/06/26 10:34:51;;;;;;;1.23;0.63;;;25.90;99.90;;;;;;5041844;28;20064;-72
2023/06/26 10:37:19;;;;;;;0.40;0.38;;;25.90;99.90;;;;;;5041774;28;20041;-72
2023/06/26 10:39:49;;;;;;;0.47;0.20;;;26.10;99.90;;;;;;5041529;28;20103;-72
2023/06/26 10:42:17;;;;;;;0.38;0.38;;;26.20;99.90;;;;;;5041549;28;20551;-72
2023/06/26 10:44:47;;;;;;;1.08;0.20;;;26.60;99.90;;;;;;5039766;28;20041;-72
2023/06/26 10:47:32;;;;;;;0.52;0.47;;;27.10;99.90;;;;;;5041400;28;20055;-72
2023/06/26 10:50:23;;;;;;;0.30;0.30;;;27.20;99.90;;;;;;5041860;28;20048;-72
2023/06/26 10:53:14;;;;;;;0.75;0.50;;;26.80;99.90;;;;;;5039813;28;20407;-72
2023/06/26 10:56:04;;;;;;;0.10;0.10;;;26.40;99.90;;;;;;5041416;28;20048;-72
2023/06/26 10:58:30;;;;;;;0.00;0.00;;;26.10;99.90;;;;;;5040784;28;20140;-72
2023/06/26 11:01:11;;;;;;;0.43;0.28;;;26.10;99.90;;;;;;5045048;28;20045;-72
2023/06/26 11:03:38;;;;;;;0.25;0.25;;;26.20;99.90;;;;;;5044632;28;20048;-72
2023/06/26 11:06:15;;;;;;;0.00;0.00;;;26.10;99.90;;;;;;5045167;28;20541;-72
2023/06/26 11:08:46;;;;;;;0.65;0.45;;;26.10;99.90;;;;;;5044789;28;20049;-72
2023/06/26 11:11:12;;;;;;;0.13;0.13;;;26.10;99.90;;;;;;5044443;28;20056;-72
2023/06/26 11:13:40;;;;;;;0.10;0.10;;;26.40;99.90;;;;;;5044692;28;20510;-72
2023/06/26 11:16:05;;;;;;;0.00;0.00;;;26.50;99.90;;;;;;5045133;28;20060;-72
2023/06/26 11:18:32;;;;;;;0.35;0.28;;;26.30;99.90;;;;;;5044491;28;20053;-72
2023/06/26 11:21:07;;;;;;;0.75;0.43;;;26.60;99.90;;;;;;5044777;28;20491;-72
2023/06/26 11:23:35;;;;;;;0.10;0.05;;;26.50;99.90;;;;;;5044782;28;20037;-72
2023/06/26 11:26:23;;;;;;;0.17;0.17;;;26.00;99.90;;;;;;5044530;28;20041;-72
2023/06/26 11:28:50;;;;;;;0.00;0.00;;;26.40;99.90;;;;;;5044841;28;20053;-72
2023/06/26 11:31:33;;;;;;;0.10;0.10;;;26.30;99.90;;;;;;5044252;28;20071;-72
2023/06/26 11:34:11;;;;;;;0.25;0.25;;;26.60;99.90;;;;;;5044589;28;20063;-72
2023/06/26 11:36:38;;;;;;;1.48;0.30;;;26.80;99.90;;;;;;5044887;28;20049;-72
2023/06/26 11:39:06;;;;;;;0.10;0.10;;;27.30;99.90;;;;;;5044174;28;21224;-72
2023/06/26 11:41:32;;;;;;;0.73;0.50;;;27.50;99.90;;;;;;5044290;28;20076;-72
2023/06/26 11:44:20;;;;;;;0.40;0.25;;;27.80;99.90;;;;;;5059504;28;20051;-72
2023/06/26 11:46:46;;;;;;;0.77;0.38;;;26.80;99.90;;;;;;5044390;28;20052;-72
2023/06/26 11:49:11;;;;;;;2.65;0.50;;;27.30;99.90;;;;;;5044084;28;20395;-72
2023/06/26 11:51:37;;;;;;;0.00;0.00;;;28.00;99.90;;;;;;5044045;28;20127;-72
2023/06/26 11:54:04;;;;;;;0.17;0.10;;;28.30;99.90;;;;;;5043899;28;20045;-72
2023/06/26 11:56:30;;;;;;;0.15;0.15;;;28.10;99.90;;;;;;5044169;28;20048;-72
2023/06/26 11:58:55;;;;;;;0.47;0.43;;;28.40;99.90;;;;;;5043970;28;20391;-72
2023/06/26 12:01:22;;;;;;;0.45;0.35;;;28.20;99.90;;;;;;5043951;28;20053;-72
2023/06/26 12:03:49;;;;;;;0.20;0.13;;;28.00;99.90;;;;;;5043820;28;20053;-72
2023/06/26 12:06:15;;;;;;;0.00;0.00;;;28.00;99.90;;;;;;5043979;28;20076;-72
2023/06/26 12:08:41;;;;;;;0.10;0.00;;;28.10;99.90;;;;;;5043545;28;20503;-72
2023/06/26 12:11:07;;;;;;;1.20;0.65;;;27.60;99.90;;;;;;5043465;28;20149;-72
2023/06/26 12:13:33;;;;;;;1.15;0.80;;;27.40;99.90;;;;;;5043608;28;20235;-72
2023/06/26 12:15:59;;;;;;;1.17;0.85;;;26.90;99.90;;;;;;5043675;28;20931;-72
2023/06/26 12:18:26;;;;;;;0.75;0.43;;;27.30;99.90;;;;;;5043656;28;20049;-72
2023/06/26 12:20:52;;;;;;;0.10;0.10;;;27.40;99.90;;;;;;5043547;28;20049;-72
2023/06/26 12:23:18;;;;;;;0.13;0.13;;;27.90;99.90;;;;;;5043515;28;20112;-72
2023/06/26 12:25:44;;;;;;;0.00;0.00;;;28.20;99.90;;;;;;5043798;28;20088;-72
2023/06/26 12:28:17;;;;;;;0.30;0.25;;;27.90;99.90;;;;;;5043481;28;20547;-72
2023/06/26 12:30:46;;;;;;;1.00;0.35;;;27.70;99.90;;;;;;5043482;28;20049;-72
2023/06/26 12:33:18;;;;;;;0.52;0.30;;;27.10;99.90;;;;;;5043345;28;20428;-72
2023/06/26 12:35:45;;;;;;;0.38;0.25;;;27.00;99.90;;;;;;5043234;28;20052;-72
2023/06/26 12:38:15;;;;;;;0.00;0.00;;;27.70;99.90;;;;;;5043094;28;20041;-72
2023/06/26 12:40:47;;;;;;;0.00;0.00;;;27.60;99.90;;;;;;5043228;28;20049;-72
2023/06/26 12:43:23;;;;;;;1.17;0.30;;;28.20;99.90;;;;;;5043114;28;20048;-72
2023/06/26 12:45:53;;;;;;;0.75;0.55;;;29.10;99.90;;;;;;5042949;28;20412;-72
2023/06/26 12:48:20;;;;;;;1.85;1.00;;;29.60;99.90;;;;;;5043017;28;20059;-72